sensor_id;sensor_type;location;lat;lon;timestamp;temperature;humidity
44707;DHT22;30433;45.596;8.408;2023-02-01T00:05:22;-0.70;96.60
44707;DHT22;30433;45.596;8.408;2023-02-01T00:11:23;-0.70;96.70
44707;DHT22;30433;45.596;8.408;2023-02-01T00:17:25;-0.10;96.80
44707;DHT22;30433;45.596;8.408;2023-02-01T00:23:30;0.30;95.80
44707;DHT22;30433;45.596;8.408;2023-02-01T00:29:33;-0.20;96.30
44707;DHT22;30433;45.596;8.408;2023-02-01T00:35:34;0.10;96.00
44707;DHT22;30433;45.596;8.408;2023-02-01T00:41:37;0.40;95.90
44707;DHT22;30433;45.596;8.408;2023-02-01T00:47:40;0.30;95.90
44707;DHT22;30433;45.596;8.408;2023-02-01T00:53:42;-0.50;96.50
44707;DHT22;30433;45.596;8.408;2023-02-01T00:59:45;-0.10;96.70
44707;DHT22;30433;45.596;8.408;2023-02-01T01:05:47;-0.20;96.00
44707;DHT22;30433;45.596;8.408;2023-02-01T01:11:49;0.10;96.00
44707;DHT22;30433;45.596;8.408;2023-02-01T01:17:54;-0.20;96.50
44707;DHT22;30433;45.596;8.408;2023-02-01T01:23:56;-0.50;96.20
44707;DHT22;30433;45.596;8.408;2023-02-01T01:29:57;-1.10;96.70
44707;DHT22;30433;45.596;8.408;2023-02-01T01:36:01;-0.70;96.50
44707;DHT22;30433;45.596;8.408;2023-02-01T01:42:02;-0.10;95.80
44707;DHT22;30433;45.596;8.408;2023-02-01T01:48:08;-0.40;95.80
44707;DHT22;30433;45.596;8.408;2023-02-01T01:54:13;-0.50;96.30
44707;DHT22;30433;45.596;8.408;2023-02-01T02:00:17;0.00;96.00
44707;DHT22;30433;45.596;8.408;2023-02-01T02:06:25;0.10;95.50
44707;DHT22;30433;45.596;8.408;2023-02-01T02:12:30;0.00;95.60
44707;DHT22;30433;45.596;8.408;2023-02-01T02:18:33;0.10;95.30
44707;DHT22;30433;45.596;8.408;2023-02-01T02:24:46;-0.40;95.90
44707;DHT22;30433;45.596;8.408;2023-02-01T02:30:55;0.00;95.70
44707;DHT22;30433;45.596;8.408;2023-02-01T02:37:07;-0.50;95.70
44707;DHT22;30433;45.596;8.408;2023-02-01T02:43:13;-0.60;95.50
44707;DHT22;30433;45.596;8.408;2023-02-01T02:49:39;0.40;94.50
44707;DHT22;30433;45.596;8.408;2023-02-01T02:55:43;0.30;95.50
44707;DHT22;30433;45.596;8.408;2023-02-01T03:01:46;-0.10;95.30
44707;DHT22;30433;45.596;8.408;2023-02-01T03:08:09;0.00;95.50
44707;DHT22;30433;45.596;8.408;2023-02-01T03:14:13;-0.30;95.50
44707;DHT22;30433;45.596;8.408;2023-02-01T03:20:15;0.00;95.00
44707;DHT22;30433;45.596;8.408;2023-02-01T03:26:20;-0.20;94.70
44707;DHT22;30433;45.596;8.408;2023-02-01T03:32:24;0.10;94.80
44707;DHT22;30433;45.596;8.408;2023-02-01T03:38:27;0.00;94.50
44707;DHT22;30433;45.596;8.408;2023-02-01T03:44:31;-0.30;95.40
44707;DHT22;30433;45.596;8.408;2023-02-01T03:50:35;0.10;94.40
44707;DHT22;30433;45.596;8.408;2023-02-01T03:56:39;0.00;94.80
44707;DHT22;30433;45.596;8.408;2023-02-01T04:02:44;-0.70;95.60
44707;DHT22;30433;45.596;8.408;2023-02-01T04:08:47;-0.40;95.60
44707;DHT22;30433;45.596;8.408;2023-02-01T04:14:49;0.00;94.90
44707;DHT22;30433;45.596;8.408;2023-02-01T04:20:51;-0.10;95.30
44707;DHT22;30433;45.596;8.408;2023-02-01T04:26:54;0.20;95.20
44707;DHT22;30433;45.596;8.408;2023-02-01T04:32:55;-0.30;95.00
44707;DHT22;30433;45.596;8.408;2023-02-01T04:38:57;0.00;95.00
44707;DHT22;30433;45.596;8.408;2023-02-01T04:45:00;0.10;95.00
44707;DHT22;30433;45.596;8.408;2023-02-01T04:51:02;0.30;95.80
44707;DHT22;30433;45.596;8.408;2023-02-01T04:57:04;0.30;94.90
44707;DHT22;30433;45.596;8.408;2023-02-01T05:03:07;0.20;95.10
44707;DHT22;30433;45.596;8.408;2023-02-01T05:09:09;0.40;95.40
44707;DHT22;30433;45.596;8.408;2023-02-01T05:15:11;0.30;95.20
44707;DHT22;30433;45.596;8.408;2023-02-01T05:21:14;0.30;95.60
44707;DHT22;30433;45.596;8.408;2023-02-01T05:27:15;0.30;95.20
44707;DHT22;30433;45.596;8.408;2023-02-01T05:33:17;0.10;95.40
44707;DHT22;30433;45.596;8.408;2023-02-01T05:39:20;0.00;95.80
44707;DHT22;30433;45.596;8.408;2023-02-01T05:45:22;-0.80;95.60
44707;DHT22;30433;45.596;8.408;2023-02-01T05:51:24;-0.80;95.80
44707;DHT22;30433;45.596;8.408;2023-02-01T05:57:27;-0.90;95.90
44707;DHT22;30433;45.596;8.408;2023-02-01T06:03:29;-0.90;95.70
44707;DHT22;30433;45.596;8.408;2023-02-01T06:09:31;-0.30;95.40
44707;DHT22;30433;45.596;8.408;2023-02-01T06:15:34;-0.30;95.60
44707;DHT22;30433;45.596;8.408;2023-02-01T06:21:37;-0.50;95.70
44707;DHT22;30433;45.596;8.408;2023-02-01T06:27:39;-0.60;95.80
44707;DHT22;30433;45.596;8.408;2023-02-01T06:33:42;-0.30;96.10
44707;DHT22;30433;45.596;8.408;2023-02-01T06:39:44;-1.00;95.90
44707;DHT22;30433;45.596;8.408;2023-02-01T06:45:46;-0.60;95.80
44707;DHT22;30433;45.596;8.408;2023-02-01T06:51:49;-1.20;96.10
44707;DHT22;30433;45.596;8.408;2023-02-01T06:57:53;-1.60;96.60
44707;DHT22;30433;45.596;8.408;2023-02-01T07:03:54;-0.70;96.20
44707;DHT22;30433;45.596;8.408;2023-02-01T07:09:58;-0.70;95.90
44707;DHT22;30433;45.596;8.408;2023-02-01T07:15:59;-0.50;96.00
44707;DHT22;30433;45.596;8.408;2023-02-01T07:22:01;-1.00;96.10
44707;DHT22;30433;45.596;8.408;2023-02-01T07:28:04;-0.10;95.70
44707;DHT22;30433;45.596;8.408;2023-02-01T07:34:06;0.00;95.90
44707;DHT22;30433;45.596;8.408;2023-02-01T07:40:08;0.40;95.90
44707;DHT22;30433;45.596;8.408;2023-02-01T07:46:12;0.10;96.30
44707;DHT22;30433;45.596;8.408;2023-02-01T07:52:15;0.70;96.00
44707;DHT22;30433;45.596;8.408;2023-02-01T07:58:17;0.70;96.10
44707;DHT22;30433;45.596;8.408;2023-02-01T08:04:20;1.40;97.30
44707;DHT22;30433;45.596;8.408;2023-02-01T08:10:22;1.80;96.20
44707;DHT22;30433;45.596;8.408;2023-02-01T08:16:23;2.20;95.70
44707;DHT22;30433;45.596;8.408;2023-02-01T08:22:27;2.90;94.30
44707;DHT22;30433;45.596;8.408;2023-02-01T08:28:33;3.70;94.10
44707;DHT22;30433;45.596;8.408;2023-02-01T08:34:34;4.30;95.00
44707;DHT22;30433;45.596;8.408;2023-02-01T08:40:38;4.20;94.20
44707;DHT22;30433;45.596;8.408;2023-02-01T08:46:41;5.10;93.20
44707;DHT22;30433;45.596;8.408;2023-02-01T08:52:43;5.40;93.70
44707;DHT22;30433;45.596;8.408;2023-02-01T08:58:46;5.20;92.30
44707;DHT22;30433;45.596;8.408;2023-02-01T09:04:48;6.00;92.60
44707;DHT22;30433;45.596;8.408;2023-02-01T09:10:50;6.20;91.30
44707;DHT22;30433;45.596;8.408;2023-02-01T09:16:53;5.60;92.80
44707;DHT22;30433;45.596;8.408;2023-02-01T09:22:55;6.70;91.40
44707;DHT22;30433;45.596;8.408;2023-02-01T09:28:56;7.20;89.40
44707;DHT22;30433;45.596;8.408;2023-02-01T09:35:00;7.30;88.20
44707;DHT22;30433;45.596;8.408;2023-02-01T09:41:06;7.30;88.30
44707;DHT22;30433;45.596;8.408;2023-02-01T09:47:10;7.60;88.00
44707;DHT22;30433;45.596;8.408;2023-02-01T09:53:15;8.00;86.20
44707;DHT22;30433;45.596;8.408;2023-02-01T09:59:23;8.30;85.90
44707;DHT22;30433;45.596;8.408;2023-02-01T10:05:33;7.80;85.40
44707;DHT22;30433;45.596;8.408;2023-02-01T10:11:42;8.30;85.00
44707;DHT22;30433;45.596;8.408;2023-02-01T10:17:54;8.50;83.70
44707;DHT22;30433;45.596;8.408;2023-02-01T10:30:20;8.60;84.90
44707;DHT22;30433;45.596;8.408;2023-02-01T10:36:23;9.00;82.40
44707;DHT22;30433;45.596;8.408;2023-02-01T10:42:27;8.50;84.20
44707;DHT22;30433;45.596;8.408;2023-02-01T10:48:31;8.80;84.10
44707;DHT22;30433;45.596;8.408;2023-02-01T10:54:34;9.10;85.00
44707;DHT22;30433;45.596;8.408;2023-02-01T11:00:42;9.30;83.30
44707;DHT22;30433;45.596;8.408;2023-02-01T11:06:47;9.50;83.30
44707;DHT22;30433;45.596;8.408;2023-02-01T11:12:52;9.90;80.30
44707;DHT22;30433;45.596;8.408;2023-02-01T11:18:54;10.00;81.70
44707;DHT22;30433;45.596;8.408;2023-02-01T11:24:57;10.20;81.00
44707;DHT22;30433;45.596;8.408;2023-02-01T11:31:02;10.10;80.60
44707;DHT22;30433;45.596;8.408;2023-02-01T11:37:09;10.20;79.80
44707;DHT22;30433;45.596;8.408;2023-02-01T11:43:17;10.30;80.20
44707;DHT22;30433;45.596;8.408;2023-02-01T11:49:20;10.50;81.20
44707;DHT22;30433;45.596;8.408;2023-02-01T11:55:32;10.60;83.40
44707;DHT22;30433;45.596;8.408;2023-02-01T12:01:40;10.70;81.80
44707;DHT22;30433;45.596;8.408;2023-02-01T12:07:50;10.80;83.10
44707;DHT22;30433;45.596;8.408;2023-02-01T12:13:58;11.00;82.80
44707;DHT22;30433;45.596;8.408;2023-02-01T12:20:09;11.00;82.50
44707;DHT22;30433;45.596;8.408;2023-02-01T12:26:22;11.10;79.60
44707;DHT22;30433;45.596;8.408;2023-02-01T12:32:32;11.20;78.40
44707;DHT22;30433;45.596;8.408;2023-02-01T12:38:41;11.40;77.30
44707;DHT22;30433;45.596;8.408;2023-02-01T12:44:47;11.50;77.80
44707;DHT22;30433;45.596;8.408;2023-02-01T12:50:51;11.40;79.60
44707;DHT22;30433;45.596;8.408;2023-02-01T12:56:57;11.40;77.50
44707;DHT22;30433;45.596;8.408;2023-02-01T13:03:03;11.80;77.60
44707;DHT22;30433;45.596;8.408;2023-02-01T13:09:09;11.50;77.60
44707;DHT22;30433;45.596;8.408;2023-02-01T13:15:14;11.90;82.20
44707;DHT22;30433;45.596;8.408;2023-02-01T13:21:18;12.00;82.40
44707;DHT22;30433;45.596;8.408;2023-02-01T13:27:23;12.10;83.60
44707;DHT22;30433;45.596;8.408;2023-02-01T13:39:54;12.50;83.60
44707;DHT22;30433;45.596;8.408;2023-02-01T13:46:02;12.20;85.60
44707;DHT22;30433;45.596;8.408;2023-02-01T13:52:06;12.50;85.10
44707;DHT22;30433;45.596;8.408;2023-02-01T13:58:17;12.60;84.50
44707;DHT22;30433;45.596;8.408;2023-02-01T14:10:55;12.70;84.70
44707;DHT22;30433;45.596;8.408;2023-02-01T14:23:19;12.80;82.00
44707;DHT22;30433;45.596;8.408;2023-02-01T14:29:24;12.70;81.40
44707;DHT22;30433;45.596;8.408;2023-02-01T14:35:27;12.60;80.00
44707;DHT22;30433;45.596;8.408;2023-02-01T14:41:31;12.70;80.90
44707;DHT22;30433;45.596;8.408;2023-02-01T14:47:34;12.60;83.50
44707;DHT22;30433;45.596;8.408;2023-02-01T14:53:35;12.50;85.70
44707;DHT22;30433;45.596;8.408;2023-02-01T14:59:39;12.60;87.40
44707;DHT22;30433;45.596;8.408;2023-02-01T15:05:41;12.30;88.10
44707;DHT22;30433;45.596;8.408;2023-02-01T15:11:56;12.40;88.00
44707;DHT22;30433;45.596;8.408;2023-02-01T15:18:00;12.20;86.60
44707;DHT22;30433;45.596;8.408;2023-02-01T15:24:11;12.00;88.40
44707;DHT22;30433;45.596;8.408;2023-02-01T15:30:16;11.70;89.40
44707;DHT22;30433;45.596;8.408;2023-02-01T15:36:19;11.60;89.40
44707;DHT22;30433;45.596;8.408;2023-02-01T15:42:24;11.30;88.30
44707;DHT22;30433;45.596;8.408;2023-02-01T15:48:31;11.20;87.70
44707;DHT22;30433;45.596;8.408;2023-02-01T15:54:39;10.80;89.60
44707;DHT22;30433;45.596;8.408;2023-02-01T16:00:45;10.90;88.90
44707;DHT22;30433;45.596;8.408;2023-02-01T16:06:48;10.60;90.10
44707;DHT22;30433;45.596;8.408;2023-02-01T16:12:52;10.50;90.10
44707;DHT22;30433;45.596;8.408;2023-02-01T16:18:59;10.20;90.80
44707;DHT22;30433;45.596;8.408;2023-02-01T16:25:00;9.90;91.80
44707;DHT22;30433;45.596;8.408;2023-02-01T16:31:04;9.60;91.70
44707;DHT22;30433;45.596;8.408;2023-02-01T16:37:09;9.50;92.00
44707;DHT22;30433;45.596;8.408;2023-02-01T16:43:13;9.30;91.90
44707;DHT22;30433;45.596;8.408;2023-02-01T16:49:18;8.90;92.20
44707;DHT22;30433;45.596;8.408;2023-02-01T16:55:21;8.20;92.00
44707;DHT22;30433;45.596;8.408;2023-02-01T17:01:23;8.20;93.00
44707;DHT22;30433;45.596;8.408;2023-02-01T17:07:26;7.80;92.50
44707;DHT22;30433;45.596;8.408;2023-02-01T17:13:28;7.60;92.90
44707;DHT22;30433;45.596;8.408;2023-02-01T17:19:30;7.30;92.50
44707;DHT22;30433;45.596;8.408;2023-02-01T17:25:34;6.90;92.70
44707;DHT22;30433;45.596;8.408;2023-02-01T17:31:37;7.00;93.30
44707;DHT22;30433;45.596;8.408;2023-02-01T17:37:39;5.00;93.40
44707;DHT22;30433;45.596;8.408;2023-02-01T17:43:42;6.00;94.10
44707;DHT22;30433;45.596;8.408;2023-02-01T17:49:44;6.20;94.10
44707;DHT22;30433;45.596;8.408;2023-02-01T17:55:46;5.90;93.50
44707;DHT22;30433;45.596;8.408;2023-02-01T18:01:49;5.70;93.80
44707;DHT22;30433;45.596;8.408;2023-02-01T18:07:51;5.20;94.30
44707;DHT22;30433;45.596;8.408;2023-02-01T18:13:53;5.00;93.80
44707;DHT22;30433;45.596;8.408;2023-02-01T18:19:56;4.90;94.70
44707;DHT22;30433;45.596;8.408;2023-02-01T18:25:58;5.40;94.90
44707;DHT22;30433;45.596;8.408;2023-02-01T18:31:59;5.30;94.60
44707;DHT22;30433;45.596;8.408;2023-02-01T18:38:04;5.00;95.00
44707;DHT22;30433;45.596;8.408;2023-02-01T18:44:08;4.50;94.80
44707;DHT22;30433;45.596;8.408;2023-02-01T18:50:13;4.60;95.60
44707;DHT22;30433;45.596;8.408;2023-02-01T18:56:16;4.90;95.70
44707;DHT22;30433;45.596;8.408;2023-02-01T19:02:18;5.00;95.00
44707;DHT22;30433;45.596;8.408;2023-02-01T19:08:21;3.60;95.50
44707;DHT22;30433;45.596;8.408;2023-02-01T19:14:25;4.50;95.40
44707;DHT22;30433;45.596;8.408;2023-02-01T19:20:27;4.40;95.40
44707;DHT22;30433;45.596;8.408;2023-02-01T19:26:28;4.60;94.80
44707;DHT22;30433;45.596;8.408;2023-02-01T19:32:32;4.70;94.60
44707;DHT22;30433;45.596;8.408;2023-02-01T19:38:33;4.40;94.70
44707;DHT22;30433;45.596;8.408;2023-02-01T19:44:36;4.90;93.80
44707;DHT22;30433;45.596;8.408;2023-02-01T19:50:39;5.00;93.20
44707;DHT22;30433;45.596;8.408;2023-02-01T19:56:41;4.80;93.20
44707;DHT22;30433;45.596;8.408;2023-02-01T20:02:44;4.80;92.80
44707;DHT22;30433;45.596;8.408;2023-02-01T20:08:48;5.00;92.80
44707;DHT22;30433;45.596;8.408;2023-02-01T20:14:50;5.10;92.40
44707;DHT22;30433;45.596;8.408;2023-02-01T20:20:54;5.00;92.90
44707;DHT22;30433;45.596;8.408;2023-02-01T20:26:57;3.90;93.20
44707;DHT22;30433;45.596;8.408;2023-02-01T20:33:00;4.70;92.50
44707;DHT22;30433;45.596;8.408;2023-02-01T20:39:03;4.80;91.90
44707;DHT22;30433;45.596;8.408;2023-02-01T20:45:09;4.80;92.10
44707;DHT22;30433;45.596;8.408;2023-02-01T20:51:13;4.60;92.70
44707;DHT22;30433;45.596;8.408;2023-02-01T20:57:16;4.40;92.90
44707;DHT22;30433;45.596;8.408;2023-02-01T21:03:19;4.10;93.20
44707;DHT22;30433;45.596;8.408;2023-02-01T21:09:22;4.50;92.90
44707;DHT22;30433;45.596;8.408;2023-02-01T21:15:24;3.70;93.20
44707;DHT22;30433;45.596;8.408;2023-02-01T21:21:28;3.90;93.10
44707;DHT22;30433;45.596;8.408;2023-02-01T21:27:31;3.70;93.00
44707;DHT22;30433;45.596;8.408;2023-02-01T21:33:34;3.10;93.10
44707;DHT22;30433;45.596;8.408;2023-02-01T21:39:37;3.50;93.30
44707;DHT22;30433;45.596;8.408;2023-02-01T21:45:39;2.80;93.60
44707;DHT22;30433;45.596;8.408;2023-02-01T21:51:41;2.30;94.20
44707;DHT22;30433;45.596;8.408;2023-02-01T21:57:44;1.70;94.60
44707;DHT22;30433;45.596;8.408;2023-02-01T22:03:46;2.00;94.60
44707;DHT22;30433;45.596;8.408;2023-02-01T22:09:48;1.60;94.30
44707;DHT22;30433;45.596;8.408;2023-02-01T22:15:51;1.50;94.20
44707;DHT22;30433;45.596;8.408;2023-02-01T22:21:53;1.30;94.50
44707;DHT22;30433;45.596;8.408;2023-02-01T22:27:55;1.40;94.40
44707;DHT22;30433;45.596;8.408;2023-02-01T22:33:58;1.10;94.50
44707;DHT22;30433;45.596;8.408;2023-02-01T22:40:00;1.40;93.90
44707;DHT22;30433;45.596;8.408;2023-02-01T22:46:04;0.90;94.70
44707;DHT22;30433;45.596;8.408;2023-02-01T22:52:08;0.70;94.70
44707;DHT22;30433;45.596;8.408;2023-02-01T22:58:10;2.00;93.30
44707;DHT22;30433;45.596;8.408;2023-02-01T23:04:13;2.50;92.30
44707;DHT22;30433;45.596;8.408;2023-02-01T23:10:18;2.40;92.90
44707;DHT22;30433;45.596;8.408;2023-02-01T23:16:23;2.80;92.60
44707;DHT22;30433;45.596;8.408;2023-02-01T23:22:26;1.90;92.80
44707;DHT22;30433;45.596;8.408;2023-02-01T23:28:31;2.50;92.20
44707;DHT22;30433;45.596;8.408;2023-02-01T23:34:35;3.00;91.90
44707;DHT22;30433;45.596;8.408;2023-02-01T23:40:37;2.20;92.20
44707;DHT22;30433;45.596;8.408;2023-02-01T23:46:41;2.50;91.00
44707;DHT22;30433;45.596;8.408;2023-02-01T23:52:46;2.70;92.30
44707;DHT22;30433;45.596;8.408;2023-02-01T23:58:48;2.40;92.30
